sensor_id;sensor_type;location;lat;lon;timestamp;P1;durP1;ratioP1;P2;durP2;ratioP2
71965;SDS011;59836;52.132;5.442;2023-04-24T00:00:31;1.15;;;1.05;;
71965;SDS011;59836;52.132;5.442;2023-04-24T00:03:05;1.07;;;0.97;;
71965;SDS011;59836;52.132;5.442;2023-04-24T00:05:32;1.65;;;1.00;;
71965;SDS011;59836;52.132;5.442;2023-04-24T00:07:59;1.52;;;0.98;;
71965;SDS011;59836;52.132;5.442;2023-04-24T00:10:32;1.30;;;1.10;;
71965;SDS011;59836;52.132;5.442;2023-04-24T00:15:31;1.73;;;1.40;;
71965;SDS011;59836;52.132;5.442;2023-04-24T00:17:57;1.60;;;0.85;;
71965;SDS011;59836;52.132;5.442;2023-04-24T00:20:30;1.00;;;0.90;;
71965;SDS011;59836;52.132;5.442;2023-04-24T00:22:58;1.30;;;0.80;;
71965;SDS011;59836;52.132;5.442;2023-04-24T00:25:32;2.10;;;1.27;;
71965;SDS011;59836;52.132;5.442;2023-04-24T00:28:03;2.90;;;1.40;;
71965;SDS011;59836;52.132;5.442;2023-04-24T00:30:47;1.77;;;1.25;;
71965;SDS011;59836;52.132;5.442;2023-04-24T00:33:13;1.63;;;1.20;;
71965;SDS011;59836;52.132;5.442;2023-04-24T00:35:50;2.47;;;1.50;;
71965;SDS011;59836;52.132;5.442;2023-04-24T00:38:17;1.25;;;0.95;;
71965;SDS011;59836;52.132;5.442;2023-04-24T00:40:46;2.67;;;1.60;;
71965;SDS011;59836;52.132;5.442;2023-04-24T00:43:13;1.83;;;1.35;;
71965;SDS011;59836;52.132;5.442;2023-04-24T00:45:46;1.63;;;1.42;;
71965;SDS011;59836;52.132;5.442;2023-04-24T00:51:13;1.58;;;1.45;;
71965;SDS011;59836;52.132;5.442;2023-04-24T00:53:40;2.10;;;1.40;;
71965;SDS011;59836;52.132;5.442;2023-04-24T00:56:07;2.60;;;1.70;;
71965;SDS011;59836;52.132;5.442;2023-04-24T00:58:42;2.05;;;1.55;;
71965;SDS011;59836;52.132;5.442;2023-04-24T01:04:16;2.80;;;1.70;;
71965;SDS011;59836;52.132;5.442;2023-04-24T01:06:44;1.90;;;1.50;;
71965;SDS011;59836;52.132;5.442;2023-04-24T01:09:11;2.05;;;1.67;;
71965;SDS011;59836;52.132;5.442;2023-04-24T01:11:38;2.40;;;1.92;;
71965;SDS011;59836;52.132;5.442;2023-04-24T01:14:09;2.40;;;1.90;;
71965;SDS011;59836;52.132;5.442;2023-04-24T01:16:37;2.60;;;1.67;;
71965;SDS011;59836;52.132;5.442;2023-04-24T01:19:05;3.10;;;2.47;;
71965;SDS011;59836;52.132;5.442;2023-04-24T01:21:34;3.00;;;1.92;;
71965;SDS011;59836;52.132;5.442;2023-04-24T01:24:04;2.50;;;2.20;;
71965;SDS011;59836;52.132;5.442;2023-04-24T01:26:31;3.28;;;2.10;;
71965;SDS011;59836;52.132;5.442;2023-04-24T01:28:57;2.72;;;2.38;;
71965;SDS011;59836;52.132;5.442;2023-04-24T01:34:07;2.60;;;2.33;;
71965;SDS011;59836;52.132;5.442;2023-04-24T01:36:38;4.40;;;2.42;;
71965;SDS011;59836;52.132;5.442;2023-04-24T01:39:06;2.03;;;1.80;;
71965;SDS011;59836;52.132;5.442;2023-04-24T01:41:32;2.75;;;2.25;;
71965;SDS011;59836;52.132;5.442;2023-04-24T01:44:01;3.83;;;2.80;;
71965;SDS011;59836;52.132;5.442;2023-04-24T01:50:13;3.83;;;2.72;;
71965;SDS011;59836;52.132;5.442;2023-04-24T01:52:39;4.25;;;2.35;;
71965;SDS011;59836;52.132;5.442;2023-04-24T01:55:06;3.00;;;2.65;;
71965;SDS011;59836;52.132;5.442;2023-04-24T02:00:07;3.05;;;2.75;;
71965;SDS011;59836;52.132;5.442;2023-04-24T02:02:49;3.72;;;3.28;;
71965;SDS011;59836;52.132;5.442;2023-04-24T02:05:18;4.10;;;3.45;;
71965;SDS011;59836;52.132;5.442;2023-04-24T02:07:44;4.22;;;3.10;;
71965;SDS011;59836;52.132;5.442;2023-04-24T02:10:17;4.43;;;2.70;;
71965;SDS011;59836;52.132;5.442;2023-04-24T02:12:44;3.88;;;3.35;;
71965;SDS011;59836;52.132;5.442;2023-04-24T02:15:25;5.15;;;3.00;;
71965;SDS011;59836;52.132;5.442;2023-04-24T02:18:04;4.18;;;2.95;;
71965;SDS011;59836;52.132;5.442;2023-04-24T02:28:16;4.05;;;2.75;;
71965;SDS011;59836;52.132;5.442;2023-04-24T02:30:46;2.85;;;2.47;;
71965;SDS011;59836;52.132;5.442;2023-04-24T02:33:20;3.78;;;2.58;;
71965;SDS011;59836;52.132;5.442;2023-04-24T02:35:47;2.97;;;2.47;;
71965;SDS011;59836;52.132;5.442;2023-04-24T02:38:14;2.58;;;1.85;;
71965;SDS011;59836;52.132;5.442;2023-04-24T02:40:41;5.63;;;2.10;;
71965;SDS011;59836;52.132;5.442;2023-04-24T02:45:46;2.72;;;2.22;;
71965;SDS011;59836;52.132;5.442;2023-04-24T02:48:16;2.43;;;1.97;;
71965;SDS011;59836;52.132;5.442;2023-04-24T02:50:45;2.80;;;2.30;;
71965;SDS011;59836;52.132;5.442;2023-04-24T02:55:58;3.47;;;2.83;;
71965;SDS011;59836;52.132;5.442;2023-04-24T02:58:30;3.20;;;2.90;;
71965;SDS011;59836;52.132;5.442;2023-04-24T03:00:56;3.50;;;2.70;;
71965;SDS011;59836;52.132;5.442;2023-04-24T03:03:23;3.22;;;2.75;;
71965;SDS011;59836;52.132;5.442;2023-04-24T03:05:50;4.43;;;2.90;;
71965;SDS011;59836;52.132;5.442;2023-04-24T03:08:16;3.15;;;2.60;;
71965;SDS011;59836;52.132;5.442;2023-04-24T03:10:45;4.43;;;2.50;;
71965;SDS011;59836;52.132;5.442;2023-04-24T03:13:18;3.80;;;2.90;;
71965;SDS011;59836;52.132;5.442;2023-04-24T03:15:45;3.65;;;2.50;;
71965;SDS011;59836;52.132;5.442;2023-04-24T03:18:13;4.18;;;3.20;;
71965;SDS011;59836;52.132;5.442;2023-04-24T03:20:40;4.80;;;2.38;;
71965;SDS011;59836;52.132;5.442;2023-04-24T03:23:16;4.10;;;2.78;;
71965;SDS011;59836;52.132;5.442;2023-04-24T03:31:31;4.30;;;3.08;;
71965;SDS011;59836;52.132;5.442;2023-04-24T03:33:58;4.22;;;2.92;;
71965;SDS011;59836;52.132;5.442;2023-04-24T03:36:25;3.70;;;2.90;;
71965;SDS011;59836;52.132;5.442;2023-04-24T03:38:52;3.00;;;2.30;;
71965;SDS011;59836;52.132;5.442;2023-04-24T03:41:18;4.20;;;2.97;;
71965;SDS011;59836;52.132;5.442;2023-04-24T03:43:52;3.97;;;2.78;;
71965;SDS011;59836;52.132;5.442;2023-04-24T03:46:18;3.53;;;2.05;;
71965;SDS011;59836;52.132;5.442;2023-04-24T03:51:44;2.87;;;2.27;;
71965;SDS011;59836;52.132;5.442;2023-04-24T03:54:15;4.55;;;2.83;;
71965;SDS011;59836;52.132;5.442;2023-04-24T04:00:07;4.40;;;3.03;;
71965;SDS011;59836;52.132;5.442;2023-04-24T04:02:35;5.70;;;3.03;;
71965;SDS011;59836;52.132;5.442;2023-04-24T04:08:03;3.33;;;2.03;;
71965;SDS011;59836;52.132;5.442;2023-04-24T04:10:29;5.13;;;3.28;;
71965;SDS011;59836;52.132;5.442;2023-04-24T04:13:01;4.82;;;3.05;;
71965;SDS011;59836;52.132;5.442;2023-04-24T04:15:29;3.00;;;2.38;;
71965;SDS011;59836;52.132;5.442;2023-04-24T04:17:55;2.60;;;2.23;;
71965;SDS011;59836;52.132;5.442;2023-04-24T04:20:22;2.78;;;2.05;;
71965;SDS011;59836;52.132;5.442;2023-04-24T04:22:48;3.90;;;2.40;;
71965;SDS011;59836;52.132;5.442;2023-04-24T04:25:15;4.60;;;2.28;;
71965;SDS011;59836;52.132;5.442;2023-04-24T04:27:42;2.90;;;1.98;;
71965;SDS011;59836;52.132;5.442;2023-04-24T04:30:08;3.57;;;2.30;;
71965;SDS011;59836;52.132;5.442;2023-04-24T04:32:36;3.25;;;2.50;;
71965;SDS011;59836;52.132;5.442;2023-04-24T04:35:03;2.55;;;2.25;;
71965;SDS011;59836;52.132;5.442;2023-04-24T04:37:33;3.85;;;2.88;;
71965;SDS011;59836;52.132;5.442;2023-04-24T04:40:00;3.35;;;2.50;;
71965;SDS011;59836;52.132;5.442;2023-04-24T04:42:27;4.43;;;3.20;;
71965;SDS011;59836;52.132;5.442;2023-04-24T04:44:54;5.57;;;3.20;;
71965;SDS011;59836;52.132;5.442;2023-04-24T04:47:23;4.22;;;3.05;;
71965;SDS011;59836;52.132;5.442;2023-04-24T04:49:50;4.00;;;2.90;;
71965;SDS011;59836;52.132;5.442;2023-04-24T04:52:18;5.18;;;3.33;;
71965;SDS011;59836;52.132;5.442;2023-04-24T04:54:45;5.03;;;3.70;;
71965;SDS011;59836;52.132;5.442;2023-04-24T04:57:12;5.82;;;3.42;;
71965;SDS011;59836;52.132;5.442;2023-04-24T04:59:39;5.28;;;3.65;;
71965;SDS011;59836;52.132;5.442;2023-04-24T05:02:09;5.55;;;3.63;;
71965;SDS011;59836;52.132;5.442;2023-04-24T05:04:36;5.65;;;3.28;;
71965;SDS011;59836;52.132;5.442;2023-04-24T05:07:06;5.30;;;3.80;;
71965;SDS011;59836;52.132;5.442;2023-04-24T05:09:46;5.63;;;3.55;;
71965;SDS011;59836;52.132;5.442;2023-04-24T05:12:12;4.18;;;2.72;;
71965;SDS011;59836;52.132;5.442;2023-04-24T05:14:39;4.20;;;2.60;;
71965;SDS011;59836;52.132;5.442;2023-04-24T05:17:06;4.30;;;3.20;;
71965;SDS011;59836;52.132;5.442;2023-04-24T05:19:33;5.37;;;3.20;;
71965;SDS011;59836;52.132;5.442;2023-04-24T05:22:02;4.35;;;2.60;;
71965;SDS011;59836;52.132;5.442;2023-04-24T05:24:43;5.68;;;3.38;;
71965;SDS011;59836;52.132;5.442;2023-04-24T05:27:10;5.65;;;3.65;;
71965;SDS011;59836;52.132;5.442;2023-04-24T05:29:38;5.68;;;3.22;;
71965;SDS011;59836;52.132;5.442;2023-04-24T05:32:06;7.27;;;3.13;;
71965;SDS011;59836;52.132;5.442;2023-04-24T05:34:32;5.35;;;3.28;;
71965;SDS011;59836;52.132;5.442;2023-04-24T05:36:59;4.03;;;2.65;;
71965;SDS011;59836;52.132;5.442;2023-04-24T05:39:26;3.63;;;2.63;;
71965;SDS011;59836;52.132;5.442;2023-04-24T05:41:52;3.50;;;2.53;;
71965;SDS011;59836;52.132;5.442;2023-04-24T05:44:21;4.43;;;2.77;;
71965;SDS011;59836;52.132;5.442;2023-04-24T05:46:48;4.10;;;2.67;;
71965;SDS011;59836;52.132;5.442;2023-04-24T05:49:14;4.20;;;2.40;;
71965;SDS011;59836;52.132;5.442;2023-04-24T05:51:41;3.53;;;2.13;;
71965;SDS011;59836;52.132;5.442;2023-04-24T05:54:08;4.75;;;2.90;;
71965;SDS011;59836;52.132;5.442;2023-04-24T05:56:34;3.37;;;2.47;;
71965;SDS011;59836;52.132;5.442;2023-04-24T05:59:01;5.53;;;3.25;;
71965;SDS011;59836;52.132;5.442;2023-04-24T06:01:28;4.70;;;2.63;;
71965;SDS011;59836;52.132;5.442;2023-04-24T06:03:54;4.07;;;2.45;;
71965;SDS011;59836;52.132;5.442;2023-04-24T06:06:21;3.78;;;1.95;;
71965;SDS011;59836;52.132;5.442;2023-04-24T06:08:50;4.07;;;1.93;;
71965;SDS011;59836;52.132;5.442;2023-04-24T06:11:20;2.92;;;1.40;;
71965;SDS011;59836;52.132;5.442;2023-04-24T06:13:51;3.20;;;1.52;;
71965;SDS011;59836;52.132;5.442;2023-04-24T06:16:30;2.55;;;1.80;;
71965;SDS011;59836;52.132;5.442;2023-04-24T06:19:00;3.45;;;1.80;;
71965;SDS011;59836;52.132;5.442;2023-04-24T06:21:34;1.73;;;1.13;;
71965;SDS011;59836;52.132;5.442;2023-04-24T06:24:08;2.80;;;1.38;;
71965;SDS011;59836;52.132;5.442;2023-04-24T06:26:44;3.20;;;1.60;;
71965;SDS011;59836;52.132;5.442;2023-04-24T06:31:58;1.30;;;0.60;;
71965;SDS011;59836;52.132;5.442;2023-04-24T06:41:29;3.10;;;0.88;;
71965;SDS011;59836;52.132;5.442;2023-04-24T06:43:56;1.77;;;0.95;;
71965;SDS011;59836;52.132;5.442;2023-04-24T06:46:23;1.95;;;1.27;;
71965;SDS011;59836;52.132;5.442;2023-04-24T06:48:52;3.57;;;2.33;;
71965;SDS011;59836;52.132;5.442;2023-04-24T06:51:23;4.18;;;2.72;;
71965;SDS011;59836;52.132;5.442;2023-04-24T06:53:51;5.97;;;3.50;;
71965;SDS011;59836;52.132;5.442;2023-04-24T06:56:18;6.32;;;3.90;;
71965;SDS011;59836;52.132;5.442;2023-04-24T06:58:48;7.28;;;3.65;;
71965;SDS011;59836;52.132;5.442;2023-04-24T07:01:15;9.03;;;4.87;;
71965;SDS011;59836;52.132;5.442;2023-04-24T07:03:43;6.57;;;4.03;;
71965;SDS011;59836;52.132;5.442;2023-04-24T07:06:10;7.65;;;4.30;;
71965;SDS011;59836;52.132;5.442;2023-04-24T07:08:39;7.50;;;4.90;;
71965;SDS011;59836;52.132;5.442;2023-04-24T07:11:08;10.27;;;5.38;;
71965;SDS011;59836;52.132;5.442;2023-04-24T07:13:42;9.10;;;5.10;;
71965;SDS011;59836;52.132;5.442;2023-04-24T07:16:09;10.70;;;6.82;;
71965;SDS011;59836;52.132;5.442;2023-04-24T07:18:36;9.68;;;5.93;;
71965;SDS011;59836;52.132;5.442;2023-04-24T07:21:04;8.85;;;5.18;;
71965;SDS011;59836;52.132;5.442;2023-04-24T07:23:30;7.35;;;5.03;;
71965;SDS011;59836;52.132;5.442;2023-04-24T07:26:01;9.40;;;5.10;;
71965;SDS011;59836;52.132;5.442;2023-04-24T07:28:28;8.55;;;4.90;;
71965;SDS011;59836;52.132;5.442;2023-04-24T07:30:57;8.57;;;4.55;;
71965;SDS011;59836;52.132;5.442;2023-04-24T07:33:26;8.82;;;4.63;;
71965;SDS011;59836;52.132;5.442;2023-04-24T07:35:53;7.88;;;4.93;;
71965;SDS011;59836;52.132;5.442;2023-04-24T07:38:29;8.07;;;4.90;;
71965;SDS011;59836;52.132;5.442;2023-04-24T07:40:59;10.40;;;4.40;;
71965;SDS011;59836;52.132;5.442;2023-04-24T07:43:28;8.07;;;4.32;;
71965;SDS011;59836;52.132;5.442;2023-04-24T07:45:55;9.10;;;5.03;;
71965;SDS011;59836;52.132;5.442;2023-04-24T07:48:24;9.63;;;5.38;;
71965;SDS011;59836;52.132;5.442;2023-04-24T07:50:57;7.40;;;4.87;;
71965;SDS011;59836;52.132;5.442;2023-04-24T07:53:24;7.30;;;4.53;;
71965;SDS011;59836;52.132;5.442;2023-04-24T07:55:51;11.13;;;4.30;;
71965;SDS011;59836;52.132;5.442;2023-04-24T07:58:18;13.40;;;4.68;;
71965;SDS011;59836;52.132;5.442;2023-04-24T08:00:47;7.32;;;4.30;;
71965;SDS011;59836;52.132;5.442;2023-04-24T08:03:14;11.30;;;4.80;;
71965;SDS011;59836;52.132;5.442;2023-04-24T08:05:44;7.85;;;4.53;;
71965;SDS011;59836;52.132;5.442;2023-04-24T08:08:20;9.20;;;4.50;;
71965;SDS011;59836;52.132;5.442;2023-04-24T08:10:48;8.80;;;5.75;;
71965;SDS011;59836;52.132;5.442;2023-04-24T08:13:15;10.40;;;5.28;;
71965;SDS011;59836;52.132;5.442;2023-04-24T08:22:51;6.43;;;3.05;;
71965;SDS011;59836;52.132;5.442;2023-04-24T08:25:17;7.60;;;3.30;;
71965;SDS011;59836;52.132;5.442;2023-04-24T08:27:48;8.32;;;3.25;;
71965;SDS011;59836;52.132;5.442;2023-04-24T08:30:14;5.10;;;2.43;;
71965;SDS011;59836;52.132;5.442;2023-04-24T08:32:43;8.20;;;2.10;;
71965;SDS011;59836;52.132;5.442;2023-04-24T08:35:22;6.10;;;2.97;;
71965;SDS011;59836;52.132;5.442;2023-04-24T08:40:59;4.97;;;2.30;;
71965;SDS011;59836;52.132;5.442;2023-04-24T08:43:26;8.17;;;2.57;;
71965;SDS011;59836;52.132;5.442;2023-04-24T08:45:56;7.07;;;3.03;;
71965;SDS011;59836;52.132;5.442;2023-04-24T08:48:25;9.05;;;2.55;;
71965;SDS011;59836;52.132;5.442;2023-04-24T08:50:58;9.15;;;2.50;;
71965;SDS011;59836;52.132;5.442;2023-04-24T08:53:29;9.85;;;2.38;;
71965;SDS011;59836;52.132;5.442;2023-04-24T08:59:45;9.50;;;2.05;;
71965;SDS011;59836;52.132;5.442;2023-04-24T09:02:12;5.55;;;2.08;;
71965;SDS011;59836;52.132;5.442;2023-04-24T09:04:40;10.23;;;2.03;;
71965;SDS011;59836;52.132;5.442;2023-04-24T09:07:14;9.52;;;1.70;;
71965;SDS011;59836;52.132;5.442;2023-04-24T09:09:44;7.80;;;1.50;;
71965;SDS011;59836;52.132;5.442;2023-04-24T09:12:11;4.55;;;1.38;;
71965;SDS011;59836;52.132;5.442;2023-04-24T09:14:38;10.05;;;1.70;;
71965;SDS011;59836;52.132;5.442;2023-04-24T09:17:10;9.77;;;1.35;;
71965;SDS011;59836;52.132;5.442;2023-04-24T09:19:41;8.00;;;1.63;;
71965;SDS011;59836;52.132;5.442;2023-04-24T09:22:11;7.23;;;2.17;;
71965;SDS011;59836;52.132;5.442;2023-04-24T09:24:47;6.65;;;1.67;;
71965;SDS011;59836;52.132;5.442;2023-04-24T09:27:14;10.55;;;1.55;;
71965;SDS011;59836;52.132;5.442;2023-04-24T09:29:56;5.43;;;1.52;;
71965;SDS011;59836;52.132;5.442;2023-04-24T09:32:27;4.35;;;1.50;;
71965;SDS011;59836;52.132;5.442;2023-04-24T09:35:14;5.77;;;1.60;;
71965;SDS011;59836;52.132;5.442;2023-04-24T09:37:46;4.95;;;1.50;;
71965;SDS011;59836;52.132;5.442;2023-04-24T09:40:37;7.10;;;1.55;;
71965;SDS011;59836;52.132;5.442;2023-04-24T09:43:13;5.40;;;1.60;;
71965;SDS011;59836;52.132;5.442;2023-04-24T09:45:46;4.78;;;1.38;;
71965;SDS011;59836;52.132;5.442;2023-04-24T09:48:19;4.30;;;1.70;;
71965;SDS011;59836;52.132;5.442;2023-04-24T09:51:07;8.18;;;1.60;;
71965;SDS011;59836;52.132;5.442;2023-04-24T09:53:37;5.68;;;1.40;;
71965;SDS011;59836;52.132;5.442;2023-04-24T09:56:09;5.38;;;1.77;;
71965;SDS011;59836;52.132;5.442;2023-04-24T09:58:42;3.83;;;1.73;;
71965;SDS011;59836;52.132;5.442;2023-04-24T10:01:09;4.47;;;1.70;;
71965;SDS011;59836;52.132;5.442;2023-04-24T10:03:39;6.60;;;1.35;;
71965;SDS011;59836;52.132;5.442;2023-04-24T10:08:44;5.13;;;1.50;;
71965;SDS011;59836;52.132;5.442;2023-04-24T10:11:22;6.63;;;1.60;;
71965;SDS011;59836;52.132;5.442;2023-04-24T10:13:49;6.00;;;1.43;;
71965;SDS011;59836;52.132;5.442;2023-04-24T10:16:23;5.57;;;2.10;;
71965;SDS011;59836;52.132;5.442;2023-04-24T10:19:05;6.10;;;1.42;;
71965;SDS011;59836;52.132;5.442;2023-04-24T10:21:33;5.00;;;1.85;;
71965;SDS011;59836;52.132;5.442;2023-04-24T10:27:09;4.17;;;1.20;;
71965;SDS011;59836;52.132;5.442;2023-04-24T10:29:36;6.80;;;1.73;;
71965;SDS011;59836;52.132;5.442;2023-04-24T10:32:10;6.32;;;1.73;;
71965;SDS011;59836;52.132;5.442;2023-04-24T10:34:40;2.72;;;1.45;;
71965;SDS011;59836;52.132;5.442;2023-04-24T10:37:12;4.75;;;1.20;;
71965;SDS011;59836;52.132;5.442;2023-04-24T10:39:39;3.10;;;0.67;;
71965;SDS011;59836;52.132;5.442;2023-04-24T10:42:16;2.40;;;1.13;;
71965;SDS011;59836;52.132;5.442;2023-04-24T10:47:57;2.03;;;1.20;;
71965;SDS011;59836;52.132;5.442;2023-04-24T10:55:48;2.47;;;0.90;;
71965;SDS011;59836;52.132;5.442;2023-04-24T11:01:43;2.75;;;0.63;;
71965;SDS011;59836;52.132;5.442;2023-04-24T11:04:31;2.75;;;1.23;;
71965;SDS011;59836;52.132;5.442;2023-04-24T11:06:59;2.13;;;0.90;;
71965;SDS011;59836;52.132;5.442;2023-04-24T11:09:33;2.72;;;0.93;;
71965;SDS011;59836;52.132;5.442;2023-04-24T11:12:07;4.45;;;0.70;;
71965;SDS011;59836;52.132;5.442;2023-04-24T11:17:29;2.03;;;0.75;;
71965;SDS011;59836;52.132;5.442;2023-04-24T11:20:05;3.33;;;1.00;;
71965;SDS011;59836;52.132;5.442;2023-04-24T11:23:07;3.58;;;0.82;;
71965;SDS011;59836;52.132;5.442;2023-04-24T11:25:37;4.03;;;1.02;;
71965;SDS011;59836;52.132;5.442;2023-04-24T11:28:04;2.65;;;0.40;;
71965;SDS011;59836;52.132;5.442;2023-04-24T11:30:32;4.40;;;0.60;;
71965;SDS011;59836;52.132;5.442;2023-04-24T11:33:03;4.73;;;1.00;;
71965;SDS011;59836;52.132;5.442;2023-04-24T11:35:34;3.13;;;0.90;;
71965;SDS011;59836;52.132;5.442;2023-04-24T11:38:05;2.33;;;0.70;;
71965;SDS011;59836;52.132;5.442;2023-04-24T11:40:52;2.78;;;1.17;;
71965;SDS011;59836;52.132;5.442;2023-04-24T11:43:20;7.10;;;1.00;;
71965;SDS011;59836;52.132;5.442;2023-04-24T11:45:48;3.90;;;0.73;;
71965;SDS011;59836;52.132;5.442;2023-04-24T11:48:19;2.15;;;1.08;;
71965;SDS011;59836;52.132;5.442;2023-04-24T11:50:56;4.90;;;1.25;;
71965;SDS011;59836;52.132;5.442;2023-04-24T11:53:22;1.00;;;0.90;;
71965;SDS011;59836;52.132;5.442;2023-04-24T11:55:49;3.90;;;0.90;;
71965;SDS011;59836;52.132;5.442;2023-04-24T11:58:20;1.30;;;0.90;;
71965;SDS011;59836;52.132;5.442;2023-04-24T12:00:55;1.90;;;0.80;;
71965;SDS011;59836;52.132;5.442;2023-04-24T12:03:30;1.80;;;0.90;;
71965;SDS011;59836;52.132;5.442;2023-04-24T12:06:08;1.02;;;0.80;;
71965;SDS011;59836;52.132;5.442;2023-04-24T12:08:40;0.70;;;0.60;;
71965;SDS011;59836;52.132;5.442;2023-04-24T12:11:07;1.10;;;0.80;;
71965;SDS011;59836;52.132;5.442;2023-04-24T12:13:34;1.42;;;0.68;;
71965;SDS011;59836;52.132;5.442;2023-04-24T12:16:02;2.35;;;0.90;;
71965;SDS011;59836;52.132;5.442;2023-04-24T12:21:23;2.38;;;0.70;;
71965;SDS011;59836;52.132;5.442;2023-04-24T12:24:06;1.67;;;0.37;;
71965;SDS011;59836;52.132;5.442;2023-04-24T12:26:55;3.33;;;0.80;;
71965;SDS011;59836;52.132;5.442;2023-04-24T12:29:22;2.67;;;0.90;;
71965;SDS011;59836;52.132;5.442;2023-04-24T12:31:50;2.60;;;1.23;;
71965;SDS011;59836;52.132;5.442;2023-04-24T12:34:21;3.53;;;0.90;;
71965;SDS011;59836;52.132;5.442;2023-04-24T12:36:50;3.33;;;1.20;;
71965;SDS011;59836;52.132;5.442;2023-04-24T12:39:19;3.33;;;1.38;;
71965;SDS011;59836;52.132;5.442;2023-04-24T12:41:59;4.72;;;1.55;;
71965;SDS011;59836;52.132;5.442;2023-04-24T12:44:33;2.53;;;1.10;;
71965;SDS011;59836;52.132;5.442;2023-04-24T12:47:06;5.10;;;1.20;;
71965;SDS011;59836;52.132;5.442;2023-04-24T12:52:26;4.57;;;1.00;;
71965;SDS011;59836;52.132;5.442;2023-04-24T12:55:19;3.03;;;1.10;;
71965;SDS011;59836;52.132;5.442;2023-04-24T12:57:49;6.20;;;1.15;;
71965;SDS011;59836;52.132;5.442;2023-04-24T13:00:29;5.57;;;1.10;;
71965;SDS011;59836;52.132;5.442;2023-04-24T13:02:59;3.87;;;0.90;;
71965;SDS011;59836;52.132;5.442;2023-04-24T13:05:30;3.10;;;1.10;;
71965;SDS011;59836;52.132;5.442;2023-04-24T13:08:02;6.72;;;1.65;;
71965;SDS011;59836;52.132;5.442;2023-04-24T13:10:34;5.82;;;1.42;;
71965;SDS011;59836;52.132;5.442;2023-04-24T13:13:07;6.43;;;1.80;;
71965;SDS011;59836;52.132;5.442;2023-04-24T13:19:01;6.85;;;1.90;;
71965;SDS011;59836;52.132;5.442;2023-04-24T13:21:27;7.50;;;1.60;;
71965;SDS011;59836;52.132;5.442;2023-04-24T13:23:57;6.93;;;1.83;;
71965;SDS011;59836;52.132;5.442;2023-04-24T13:26:24;8.80;;;1.70;;
71965;SDS011;59836;52.132;5.442;2023-04-24T13:28:52;8.70;;;1.60;;
71965;SDS011;59836;52.132;5.442;2023-04-24T13:31:21;4.75;;;1.48;;
71965;SDS011;59836;52.132;5.442;2023-04-24T13:33:48;6.87;;;1.60;;
71965;SDS011;59836;52.132;5.442;2023-04-24T13:36:19;3.45;;;0.90;;
71965;SDS011;59836;52.132;5.442;2023-04-24T13:38:46;6.47;;;1.60;;
71965;SDS011;59836;52.132;5.442;2023-04-24T13:41:12;5.90;;;1.88;;
71965;SDS011;59836;52.132;5.442;2023-04-24T13:43:43;5.40;;;1.65;;
71965;SDS011;59836;52.132;5.442;2023-04-24T13:46:11;7.23;;;1.80;;
71965;SDS011;59836;52.132;5.442;2023-04-24T13:48:40;9.20;;;2.00;;
71965;SDS011;59836;52.132;5.442;2023-04-24T13:51:11;3.97;;;1.33;;
71965;SDS011;59836;52.132;5.442;2023-04-24T13:54:03;7.57;;;2.63;;
71965;SDS011;59836;52.132;5.442;2023-04-24T13:56:30;7.00;;;1.70;;
71965;SDS011;59836;52.132;5.442;2023-04-24T13:58:57;3.57;;;1.70;;
71965;SDS011;59836;52.132;5.442;2023-04-24T14:01:24;6.05;;;1.90;;
71965;SDS011;59836;52.132;5.442;2023-04-24T14:03:55;6.00;;;1.38;;
71965;SDS011;59836;52.132;5.442;2023-04-24T14:06:22;9.05;;;2.25;;
71965;SDS011;59836;52.132;5.442;2023-04-24T14:08:49;6.45;;;1.75;;
71965;SDS011;59836;52.132;5.442;2023-04-24T14:11:17;5.27;;;1.90;;
71965;SDS011;59836;52.132;5.442;2023-04-24T14:13:44;8.27;;;2.03;;
71965;SDS011;59836;52.132;5.442;2023-04-24T14:16:12;5.75;;;1.80;;
71965;SDS011;59836;52.132;5.442;2023-04-24T14:18:39;6.70;;;2.00;;
71965;SDS011;59836;52.132;5.442;2023-04-24T14:21:06;6.03;;;1.52;;
71965;SDS011;59836;52.132;5.442;2023-04-24T14:23:32;5.53;;;1.90;;
71965;SDS011;59836;52.132;5.442;2023-04-24T14:26:05;5.63;;;1.70;;
71965;SDS011;59836;52.132;5.442;2023-04-24T14:28:37;9.10;;;2.20;;
71965;SDS011;59836;52.132;5.442;2023-04-24T14:31:04;5.97;;;2.33;;
71965;SDS011;59836;52.132;5.442;2023-04-24T14:36:24;6.83;;;2.37;;
71965;SDS011;59836;52.132;5.442;2023-04-24T14:38:51;8.93;;;2.40;;
71965;SDS011;59836;52.132;5.442;2023-04-24T14:41:17;8.38;;;2.40;;
71965;SDS011;59836;52.132;5.442;2023-04-24T14:43:44;6.85;;;1.77;;
71965;SDS011;59836;52.132;5.442;2023-04-24T14:46:11;7.90;;;2.38;;
71965;SDS011;59836;52.132;5.442;2023-04-24T14:48:37;7.40;;;2.20;;
71965;SDS011;59836;52.132;5.442;2023-04-24T14:51:05;11.07;;;3.05;;
71965;SDS011;59836;52.132;5.442;2023-04-24T14:53:32;8.38;;;2.42;;
71965;SDS011;59836;52.132;5.442;2023-04-24T14:56:01;5.43;;;2.25;;
71965;SDS011;59836;52.132;5.442;2023-04-24T14:58:30;6.18;;;2.10;;
71965;SDS011;59836;52.132;5.442;2023-04-24T15:01:01;5.50;;;2.23;;
71965;SDS011;59836;52.132;5.442;2023-04-24T15:03:28;5.43;;;1.98;;
71965;SDS011;59836;52.132;5.442;2023-04-24T15:05:56;6.30;;;2.40;;
71965;SDS011;59836;52.132;5.442;2023-04-24T15:08:24;5.38;;;1.83;;
71965;SDS011;59836;52.132;5.442;2023-04-24T15:10:54;5.28;;;1.70;;
71965;SDS011;59836;52.132;5.442;2023-04-24T15:13:21;9.17;;;2.27;;
71965;SDS011;59836;52.132;5.442;2023-04-24T15:15:51;7.40;;;2.08;;
71965;SDS011;59836;52.132;5.442;2023-04-24T15:18:18;8.10;;;2.35;;
71965;SDS011;59836;52.132;5.442;2023-04-24T15:20:45;8.45;;;2.17;;
71965;SDS011;59836;52.132;5.442;2023-04-24T15:23:15;6.43;;;2.13;;
71965;SDS011;59836;52.132;5.442;2023-04-24T15:25:42;8.07;;;1.40;;
71965;SDS011;59836;52.132;5.442;2023-04-24T15:28:12;7.97;;;2.53;;
71965;SDS011;59836;52.132;5.442;2023-04-24T15:30:41;9.52;;;2.25;;
71965;SDS011;59836;52.132;5.442;2023-04-24T15:33:08;7.72;;;2.67;;
71965;SDS011;59836;52.132;5.442;2023-04-24T15:35:44;7.20;;;1.75;;
71965;SDS011;59836;52.132;5.442;2023-04-24T15:38:10;7.17;;;2.50;;
71965;SDS011;59836;52.132;5.442;2023-04-24T15:40:39;8.15;;;2.05;;
71965;SDS011;59836;52.132;5.442;2023-04-24T15:43:06;8.18;;;2.00;;
71965;SDS011;59836;52.132;5.442;2023-04-24T15:45:33;6.38;;;2.13;;
71965;SDS011;59836;52.132;5.442;2023-04-24T15:48:00;10.98;;;2.80;;
71965;SDS011;59836;52.132;5.442;2023-04-24T15:50:27;11.50;;;2.67;;
71965;SDS011;59836;52.132;5.442;2023-04-24T15:52:54;8.77;;;2.92;;
71965;SDS011;59836;52.132;5.442;2023-04-24T15:55:21;9.20;;;2.58;;
71965;SDS011;59836;52.132;5.442;2023-04-24T15:57:50;8.60;;;2.00;;
71965;SDS011;59836;52.132;5.442;2023-04-24T16:00:41;6.40;;;2.50;;
71965;SDS011;59836;52.132;5.442;2023-04-24T16:03:17;8.43;;;2.37;;
71965;SDS011;59836;52.132;5.442;2023-04-24T16:05:47;6.35;;;2.53;;
71965;SDS011;59836;52.132;5.442;2023-04-24T16:08:27;7.35;;;1.70;;
71965;SDS011;59836;52.132;5.442;2023-04-24T16:10:57;7.95;;;2.90;;
71965;SDS011;59836;52.132;5.442;2023-04-24T16:13:23;6.68;;;2.60;;
71965;SDS011;59836;52.132;5.442;2023-04-24T16:15:57;10.03;;;2.77;;
71965;SDS011;59836;52.132;5.442;2023-04-24T16:18:27;6.82;;;2.00;;
71965;SDS011;59836;52.132;5.442;2023-04-24T16:20:55;6.15;;;2.10;;
71965;SDS011;59836;52.132;5.442;2023-04-24T16:23:39;12.85;;;2.65;;
71965;SDS011;59836;52.132;5.442;2023-04-24T16:26:16;6.03;;;2.28;;
71965;SDS011;59836;52.132;5.442;2023-04-24T16:28:46;9.30;;;2.40;;
71965;SDS011;59836;52.132;5.442;2023-04-24T16:31:13;9.18;;;2.33;;
71965;SDS011;59836;52.132;5.442;2023-04-24T16:33:53;4.45;;;1.83;;
71965;SDS011;59836;52.132;5.442;2023-04-24T16:36:23;8.48;;;1.98;;
71965;SDS011;59836;52.132;5.442;2023-04-24T16:38:49;6.30;;;1.77;;
71965;SDS011;59836;52.132;5.442;2023-04-24T16:41:16;9.53;;;2.40;;
71965;SDS011;59836;52.132;5.442;2023-04-24T16:44:09;5.70;;;2.47;;
71965;SDS011;59836;52.132;5.442;2023-04-24T16:46:36;5.30;;;1.80;;